createdAt,value
2023-02-09T00:01:25.507Z,99.90
2023-02-09T00:03:54.511Z,99.90
2023-02-09T00:06:25.089Z,99.90
2023-02-09T00:08:54.839Z,1.00
2023-02-09T00:11:45.415Z,1.00
2023-02-09T00:14:13.435Z,1.00
2023-02-09T00:16:42.166Z,1.00
2023-02-09T00:19:10.374Z,1.00
2023-02-09T00:21:38.430Z,1.00
2023-02-09T00:24:10.603Z,1.00
2023-02-09T00:26:38.504Z,1.00
2023-02-09T00:29:07.538Z,1.00
2023-02-09T00:31:38.915Z,1.00
2023-02-09T00:34:07.194Z,1.00
2023-02-09T00:36:35.620Z,1.00
2023-02-09T00:39:04.102Z,1.00
2023-02-09T00:41:50.816Z,1.00
2023-02-09T00:44:18.850Z,1.00
2023-02-09T00:46:46.852Z,1.00
2023-02-09T00:49:14.855Z,1.00
2023-02-09T00:51:42.850Z,1.00
2023-02-09T00:54:10.962Z,1.00
2023-02-09T00:56:40.378Z,1.00
2023-02-09T00:59:08.422Z,1.00
2023-02-09T01:01:36.467Z,1.00
2023-02-09T01:04:05.148Z,1.00
2023-02-09T01:06:33.289Z,1.00
2023-02-09T01:09:01.541Z,1.00
2023-02-09T01:11:30.335Z,1.00
2023-02-09T01:14:01.195Z,1.00
2023-02-09T01:16:31.660Z,1.00
2023-02-09T01:19:01.512Z,1.00
2023-02-09T01:21:30.339Z,1.00
2023-02-09T01:23:58.403Z,1.00
2023-02-09T01:26:26.386Z,1.00
2023-02-09T01:28:55.604Z,1.00
2023-02-09T01:31:28.261Z,1.00
2023-02-09T01:33:58.458Z,1.00
2023-02-09T01:36:26.924Z,1.00
2023-02-09T01:38:56.265Z,1.00
2023-02-09T01:41:24.328Z,1.00
2023-02-09T01:43:57.173Z,1.00
2023-02-09T01:46:28.508Z,1.00
2023-02-09T01:49:06.328Z,1.00
2023-02-09T01:51:39.146Z,1.00
2023-02-09T01:54:10.291Z,1.00
2023-02-09T01:56:42.721Z,1.00
2023-02-09T01:59:11.465Z,1.00
2023-02-09T02:01:41.160Z,1.00
2023-02-09T02:04:09.394Z,1.00
2023-02-09T02:06:38.023Z,1.00
2023-02-09T02:09:11.239Z,1.00
2023-02-09T02:11:41.168Z,1.00
2023-02-09T02:14:26.826Z,1.00
2023-02-09T02:17:06.166Z,1.00
2023-02-09T02:20:08.441Z,1.00
2023-02-09T02:22:55.588Z,1.00
2023-02-09T02:25:49.000Z,1.00
2023-02-09T02:28:35.198Z,1.00
2023-02-09T02:31:28.925Z,1.00
2023-02-09T02:34:06.973Z,1.00
2023-02-09T02:36:40.971Z,1.00
2023-02-09T02:39:19.028Z,1.00
2023-02-09T02:42:12.021Z,1.00
2023-02-09T02:44:45.942Z,1.00
2023-02-09T02:47:19.400Z,1.00
2023-02-09T02:49:53.111Z,1.00
2023-02-09T02:52:21.104Z,1.00
2023-02-09T02:54:54.839Z,1.00
2023-02-09T02:57:27.947Z,1.00
2023-02-09T02:59:59.461Z,1.00
2023-02-09T03:02:34.397Z,1.00
2023-02-09T03:05:05.654Z,1.00
2023-02-09T03:07:33.853Z,1.00
2023-02-09T03:10:03.468Z,1.00
2023-02-09T03:12:42.682Z,1.00
2023-02-09T03:15:19.940Z,1.00
2023-02-09T03:17:52.598Z,1.00
2023-02-09T03:20:31.352Z,1.00
2023-02-09T03:23:03.465Z,1.00
2023-02-09T03:25:35.261Z,1.00
2023-02-09T03:28:07.059Z,1.00
2023-02-09T03:30:36.558Z,1.00
2023-02-09T03:33:06.136Z,1.00
2023-02-09T03:35:42.215Z,1.00
2023-02-09T03:38:10.253Z,1.00
2023-02-09T03:40:38.250Z,1.00
2023-02-09T03:43:06.518Z,1.00
2023-02-09T03:45:34.506Z,1.00
2023-02-09T03:48:02.608Z,1.00
2023-02-09T03:50:30.585Z,1.00
2023-02-09T03:53:00.079Z,1.00
2023-02-09T03:55:28.187Z,1.00
2023-02-09T03:57:56.199Z,1.00
2023-02-09T04:00:24.382Z,1.00
2023-02-09T04:02:52.350Z,1.00
2023-02-09T04:05:22.168Z,1.00
2023-02-09T04:07:50.399Z,1.00
2023-02-09T04:10:20.277Z,1.00
2023-02-09T04:12:48.291Z,1.00
2023-02-09T04:15:16.427Z,1.00
2023-02-09T04:17:44.401Z,1.00
2023-02-09T04:20:12.866Z,1.00
2023-02-09T04:22:41.094Z,1.00
2023-02-09T04:25:09.335Z,1.00
2023-02-09T04:27:38.731Z,1.00
2023-02-09T04:30:07.628Z,1.00
2023-02-09T04:32:35.588Z,1.00
2023-02-09T04:35:03.573Z,1.00
2023-02-09T04:37:31.645Z,1.00
2023-02-09T04:39:59.659Z,1.00
2023-02-09T04:42:27.833Z,1.00
2023-02-09T04:44:57.197Z,1.00
2023-02-09T04:47:25.451Z,1.00
2023-02-09T04:49:53.528Z,1.00
2023-02-09T04:52:21.509Z,1.00
2023-02-09T04:54:49.537Z,1.00
2023-02-09T04:57:35.228Z,1.00
2023-02-09T05:00:05.448Z,1.00
2023-02-09T05:02:33.424Z,1.00
2023-02-09T05:05:01.462Z,1.00
2023-02-09T05:07:29.429Z,1.00
2023-02-09T05:09:57.460Z,1.00
2023-02-09T05:12:25.544Z,1.00
2023-02-09T05:14:53.529Z,1.00
2023-02-09T05:17:22.892Z,1.00
2023-02-09T05:19:50.912Z,1.00
2023-02-09T05:22:19.174Z,1.00
2023-02-09T05:24:47.209Z,1.00
2023-02-09T05:27:15.165Z,1.00
2023-02-09T05:29:43.144Z,1.00
2023-02-09T05:32:11.247Z,1.00
2023-02-09T05:34:40.635Z,1.00
2023-02-09T05:37:08.640Z,1.00
2023-02-09T05:39:36.637Z,1.00
2023-02-09T05:42:16.803Z,1.00
2023-02-09T05:44:45.766Z,1.00
2023-02-09T05:47:14.274Z,1.00
2023-02-09T05:49:44.185Z,1.00
2023-02-09T05:52:13.620Z,1.00
2023-02-09T05:54:41.914Z,1.00
2023-02-09T05:57:10.137Z,1.00
2023-02-09T05:59:38.228Z,1.00
2023-02-09T06:02:06.490Z,1.00
2023-02-09T06:04:34.847Z,1.00
2023-02-09T06:07:04.323Z,1.00
2023-02-09T06:09:32.361Z,1.00
2023-02-09T06:12:00.396Z,1.00
2023-02-09T06:14:28.464Z,1.00
2023-02-09T06:16:56.480Z,1.00
2023-02-09T06:19:24.587Z,1.00
2023-02-09T06:21:52.568Z,1.00
2023-02-09T06:24:21.922Z,1.00
2023-02-09T06:26:50.022Z,1.00
2023-02-09T06:29:18.006Z,1.00
2023-02-09T06:31:46.231Z,1.00
2023-02-09T06:34:14.316Z,1.00
2023-02-09T06:36:42.323Z,1.00
2023-02-09T06:39:11.845Z,1.00
2023-02-09T06:41:41.470Z,1.00
2023-02-09T06:44:09.447Z,1.00
2023-02-09T06:46:37.469Z,1.00
2023-02-09T06:49:05.609Z,1.00
2023-02-09T06:51:33.853Z,1.00
2023-02-09T06:54:02.115Z,1.00
2023-02-09T06:56:30.101Z,1.00
2023-02-09T06:58:59.488Z,1.00
2023-02-09T07:01:27.486Z,1.00
2023-02-09T07:03:55.623Z,1.00
2023-02-09T07:06:23.695Z,1.00
2023-02-09T07:08:52.121Z,1.00
2023-02-09T07:11:22.239Z,1.00
2023-02-09T07:13:50.278Z,1.00
2023-02-09T07:16:19.722Z,1.00
2023-02-09T07:18:47.711Z,1.00
2023-02-09T07:21:19.942Z,1.00
2023-02-09T07:23:49.166Z,1.00
2023-02-09T07:26:18.862Z,1.00
2023-02-09T07:28:47.177Z,1.00
2023-02-09T07:31:16.837Z,1.00
2023-02-09T07:33:46.738Z,1.00
2023-02-09T07:36:16.754Z,1.00
2023-02-09T07:38:45.162Z,1.00
2023-02-09T07:41:17.610Z,1.00
2023-02-09T07:43:46.019Z,1.00
2023-02-09T07:46:17.177Z,1.00
2023-02-09T07:48:47.974Z,1.00
2023-02-09T07:51:16.817Z,1.00
2023-02-09T07:53:45.006Z,1.00
2023-02-09T07:56:13.029Z,1.00
2023-02-09T07:58:41.202Z,1.00
2023-02-09T08:01:12.848Z,1.00
2023-02-09T08:03:44.096Z,1.00
2023-02-09T08:06:20.097Z,1.00
2023-02-09T08:08:49.440Z,1.00
2023-02-09T08:11:21.579Z,1.00
2023-02-09T08:13:50.925Z,1.00
2023-02-09T08:16:23.396Z,1.00
2023-02-09T08:18:57.614Z,1.00
2023-02-09T08:21:29.573Z,1.00
2023-02-09T08:24:00.555Z,1.00
2023-02-09T08:26:28.556Z,1.00
2023-02-09T08:28:57.794Z,1.00
2023-02-09T08:31:25.922Z,1.00
2023-02-09T08:33:54.301Z,1.00
2023-02-09T08:36:23.283Z,1.00
2023-02-09T08:38:52.656Z,1.00
2023-02-09T08:41:20.680Z,1.00
2023-02-09T08:43:49.663Z,1.00
2023-02-09T08:46:17.859Z,1.00
2023-02-09T08:48:47.135Z,1.00
2023-02-09T08:51:17.622Z,1.00
2023-02-09T08:53:52.237Z,1.00
2023-02-09T08:56:23.416Z,1.00
2023-02-09T08:58:51.591Z,1.00
2023-02-09T09:01:19.691Z,1.00
2023-02-09T09:03:47.738Z,1.00
2023-02-09T09:06:16.038Z,1.00
2023-02-09T09:08:44.149Z,1.00
2023-02-09T09:11:14.681Z,1.00
2023-02-09T09:13:44.337Z,1.00
2023-02-09T09:16:15.825Z,1.00
2023-02-09T09:18:45.313Z,1.00
2023-02-09T09:21:14.058Z,1.00
2023-02-09T09:23:42.093Z,1.00
2023-02-09T09:26:10.495Z,1.00
2023-02-09T09:28:39.042Z,1.00
2023-02-09T09:31:12.452Z,1.00
2023-02-09T09:33:41.706Z,1.00
2023-02-09T09:36:10.440Z,1.00
2023-02-09T09:38:40.013Z,1.00
2023-02-09T09:41:20.082Z,1.00
2023-02-09T09:43:48.592Z,1.00
2023-02-09T09:46:20.652Z,1.00
2023-02-09T09:48:51.749Z,1.00
2023-02-09T09:51:25.695Z,1.00
2023-02-09T09:53:56.248Z,1.00
2023-02-09T09:56:27.084Z,1.00
2023-02-09T09:58:55.474Z,1.00
2023-02-09T10:01:28.651Z,1.00
2023-02-09T10:03:59.492Z,1.00
2023-02-09T10:06:34.049Z,1.00
2023-02-09T10:09:06.878Z,1.00
2023-02-09T10:11:40.039Z,1.00
2023-02-09T10:14:10.293Z,1.00
2023-02-09T10:16:46.182Z,1.00
2023-02-09T10:19:20.352Z,1.00
2023-02-09T10:21:48.949Z,1.00
2023-02-09T10:24:22.898Z,1.00
2023-02-09T10:27:08.234Z,1.00
2023-02-09T10:29:37.228Z,1.00
2023-02-09T10:32:14.672Z,1.00
2023-02-09T10:34:46.482Z,1.00
2023-02-09T10:37:21.571Z,1.00
2023-02-09T10:40:01.752Z,1.00
2023-02-09T10:42:32.463Z,1.00
2023-02-09T10:45:09.006Z,1.00
2023-02-09T10:47:40.046Z,1.00
2023-02-09T10:50:17.200Z,1.00
2023-02-09T10:52:56.453Z,1.00
2023-02-09T10:55:30.198Z,1.00
2023-02-09T10:58:27.868Z,1.00
2023-02-09T11:01:07.862Z,20.70
2023-02-09T11:03:47.039Z,38.20
2023-02-09T11:06:20.884Z,55.50
2023-02-09T11:08:53.449Z,59.20
2023-02-09T11:11:29.286Z,94.10
2023-02-09T11:13:57.637Z,68.80
2023-02-09T11:17:07.332Z,76.60
2023-02-09T11:20:03.446Z,99.90
2023-02-09T11:22:49.003Z,99.90
2023-02-09T11:25:23.749Z,99.90
2023-02-09T11:28:18.598Z,99.90
2023-02-09T11:31:05.759Z,99.90
2023-02-09T11:33:45.394Z,99.90
2023-02-09T11:36:26.142Z,99.90
2023-02-09T11:38:58.041Z,99.90
2023-02-09T11:41:48.668Z,99.90
2023-02-09T11:44:25.879Z,99.90
2023-02-09T11:47:02.068Z,99.90
2023-02-09T11:49:33.532Z,99.90
2023-02-09T11:52:04.649Z,99.90
2023-02-09T11:54:35.804Z,99.90
2023-02-09T11:57:12.699Z,99.90
2023-02-09T11:59:44.469Z,99.90
2023-02-09T12:02:31.523Z,99.90
2023-02-09T12:05:01.372Z,99.90
2023-02-09T12:07:35.404Z,99.90
2023-02-09T12:10:12.429Z,99.90
2023-02-09T12:12:46.448Z,99.90
2023-02-09T12:15:18.478Z,99.90
2023-02-09T12:17:51.275Z,99.90
2023-02-09T12:20:45.619Z,99.90
2023-02-09T12:23:32.757Z,99.90
2023-02-09T12:26:01.860Z,99.90
2023-02-09T12:28:42.283Z,99.90
2023-02-09T12:31:24.787Z,99.90
2023-02-09T12:34:04.512Z,99.90
2023-02-09T12:36:34.436Z,99.90
2023-02-09T12:39:23.784Z,99.90
2023-02-09T12:42:27.183Z,99.90
2023-02-09T12:44:57.129Z,99.90
2023-02-09T12:47:57.924Z,99.90
2023-02-09T12:50:34.976Z,99.90
2023-02-09T12:53:42.367Z,99.90
2023-02-09T12:56:33.733Z,99.90
2023-02-09T12:59:19.903Z,99.90
2023-02-09T13:02:25.285Z,99.90
2023-02-09T13:05:04.728Z,99.90
2023-02-09T13:07:52.706Z,99.90
2023-02-09T13:10:27.599Z,99.90
2023-02-09T13:13:04.376Z,99.90
2023-02-09T13:15:54.358Z,99.90
2023-02-09T13:18:30.090Z,99.90
2023-02-09T13:21:14.571Z,99.90
2023-02-09T13:23:54.177Z,99.90
2023-02-09T13:26:25.608Z,99.90
2023-02-09T13:29:19.801Z,99.90
2023-02-09T13:31:57.039Z,99.90
2023-02-09T13:34:35.082Z,99.90
2023-02-09T13:37:11.592Z,99.90
2023-02-09T13:39:42.036Z,99.90
2023-02-09T13:42:19.169Z,99.90
2023-02-09T13:44:52.604Z,99.90
2023-02-09T13:47:21.110Z,99.90
2023-02-09T13:50:00.468Z,99.90
2023-02-09T13:52:36.262Z,99.90
2023-02-09T13:55:14.891Z,99.90
2023-02-09T13:57:45.069Z,1.00
2023-02-09T14:00:24.715Z,1.00
2023-02-09T14:02:55.077Z,1.00
2023-02-09T14:05:39.236Z,1.00
2023-02-09T14:08:08.798Z,1.00
2023-02-09T14:10:37.162Z,1.00
2023-02-09T14:13:06.392Z,1.00
2023-02-09T14:15:56.038Z,1.00
2023-02-09T14:18:42.438Z,1.00
2023-02-09T14:21:29.775Z,1.00
2023-02-09T14:24:28.528Z,1.00
2023-02-09T14:27:03.847Z,1.00
2023-02-09T14:29:33.341Z,1.00
2023-02-09T14:32:31.948Z,1.00
2023-02-09T14:35:10.395Z,1.00
2023-02-09T14:37:38.560Z,1.00
2023-02-09T14:40:22.758Z,1.00
2023-02-09T14:42:59.150Z,1.00
2023-02-09T14:45:31.738Z,1.00
2023-02-09T14:48:01.184Z,1.00
2023-02-09T14:50:29.434Z,1.00
2023-02-09T14:53:07.811Z,1.00
2023-02-09T14:55:40.431Z,1.00
2023-02-09T14:58:13.401Z,1.00
2023-02-09T15:00:41.621Z,1.00
2023-02-09T15:03:11.005Z,1.00
2023-02-09T15:05:39.359Z,1.00
2023-02-09T15:08:09.025Z,1.00
2023-02-09T15:10:39.687Z,1.00
2023-02-09T15:13:07.658Z,1.00
2023-02-09T15:15:37.706Z,1.00
2023-02-09T15:18:05.876Z,1.00
2023-02-09T15:20:35.371Z,1.00
2023-02-09T15:23:03.359Z,1.00
2023-02-09T15:25:31.470Z,1.00
2023-02-09T15:28:00.833Z,1.00
2023-02-09T15:30:33.432Z,1.00
2023-02-09T15:33:01.897Z,1.00
2023-02-09T15:35:30.764Z,1.00
2023-02-09T15:38:01.708Z,1.00
2023-02-09T15:40:50.401Z,1.00
2023-02-09T15:43:38.072Z,1.00
2023-02-09T15:46:24.555Z,1.00
2023-02-09T15:48:52.651Z,1.00
2023-02-09T15:51:22.007Z,1.00
2023-02-09T15:53:52.224Z,1.00
2023-02-09T15:56:20.639Z,1.00
2023-02-09T15:58:51.681Z,1.00
2023-02-09T16:01:20.376Z,1.00
2023-02-09T16:03:49.092Z,1.00
2023-02-09T16:06:18.985Z,1.00
2023-02-09T16:08:48.545Z,1.00
2023-02-09T16:11:21.460Z,1.00
2023-02-09T16:13:50.513Z,1.00
2023-02-09T16:16:18.591Z,1.00
2023-02-09T16:18:47.789Z,1.00
2023-02-09T16:21:23.353Z,1.00
2023-02-09T16:23:53.332Z,1.00
2023-02-09T16:26:24.334Z,1.00
2023-02-09T16:28:53.324Z,1.00
2023-02-09T16:31:21.577Z,1.00
2023-02-09T16:33:50.526Z,1.00
2023-02-09T16:36:20.821Z,1.00
2023-02-09T16:38:48.956Z,1.00
2023-02-09T16:41:48.080Z,1.00
2023-02-09T16:44:19.891Z,1.00
2023-02-09T16:46:49.510Z,1.00
2023-02-09T16:49:35.411Z,1.00
2023-02-09T16:52:07.044Z,1.00
2023-02-09T16:54:41.297Z,1.00
2023-02-09T16:57:13.025Z,1.00
2023-02-09T16:59:44.021Z,1.00
2023-02-09T17:02:37.309Z,1.00
2023-02-09T17:05:17.378Z,1.00
2023-02-09T17:07:54.443Z,1.00
2023-02-09T17:10:25.706Z,1.00
2023-02-09T17:12:54.122Z,1.00
2023-02-09T17:15:31.069Z,1.00
2023-02-09T17:18:02.494Z,1.00
2023-02-09T17:20:35.808Z,1.00
2023-02-09T17:23:03.839Z,1.00
2023-02-09T17:25:31.922Z,1.00
2023-02-09T17:28:00.040Z,1.00
2023-02-09T17:30:32.323Z,1.00
2023-02-09T17:33:03.459Z,1.00
2023-02-09T17:36:03.685Z,1.00
2023-02-09T17:38:24.892Z,1.00
2023-02-09T17:40:54.669Z,1.00
2023-02-09T17:43:23.421Z,1.00
2023-02-09T17:45:53.238Z,1.00
2023-02-09T17:48:22.858Z,1.00
2023-02-09T17:50:58.137Z,1.00
2023-02-09T17:53:28.127Z,1.00
2023-02-09T17:55:57.146Z,1.00
2023-02-09T17:58:26.008Z,1.00
2023-02-09T18:00:56.187Z,1.00
2023-02-09T18:03:26.174Z,1.00
2023-02-09T18:05:58.288Z,1.00
2023-02-09T18:08:27.335Z,1.00
2023-02-09T18:10:58.551Z,1.00
2023-02-09T18:13:27.112Z,1.00
2023-02-09T18:15:56.602Z,1.00
2023-02-09T18:18:24.707Z,1.00
2023-02-09T18:20:54.225Z,1.00
2023-02-09T18:23:23.500Z,1.00
2023-02-09T18:25:54.238Z,1.00
2023-02-09T18:28:22.336Z,1.00
2023-02-09T18:30:50.359Z,1.00
2023-02-09T18:33:19.781Z,1.00
2023-02-09T18:35:48.145Z,1.00
2023-02-09T18:38:16.827Z,1.00
2023-02-09T18:40:45.121Z,1.00
2023-02-09T18:43:15.608Z,1.00
2023-02-09T18:45:43.935Z,1.00
2023-02-09T18:48:12.717Z,1.00
2023-02-09T18:50:42.126Z,1.00
2023-02-09T18:53:12.952Z,1.00
2023-02-09T18:55:40.937Z,1.00
2023-02-09T18:58:10.309Z,1.00
2023-02-09T19:00:38.584Z,1.00
2023-02-09T19:03:06.682Z,1.00
2023-02-09T19:05:34.878Z,1.00
2023-02-09T19:08:07.407Z,1.00
2023-02-09T19:10:36.085Z,1.00
2023-02-09T19:13:05.015Z,1.00
2023-02-09T19:15:34.193Z,1.00
2023-02-09T19:18:02.622Z,1.00
2023-02-09T19:20:34.123Z,1.00
2023-02-09T19:23:03.861Z,15.60
2023-02-09T19:25:33.538Z,17.80
2023-02-09T19:28:01.554Z,21.10
2023-02-09T19:30:29.565Z,29.40
2023-02-09T19:32:58.718Z,34.30
2023-02-09T19:35:29.259Z,49.80
2023-02-09T19:37:58.484Z,50.50
2023-02-09T19:40:36.048Z,47.60
2023-02-09T19:43:05.983Z,61.60
2023-02-09T19:45:37.528Z,65.00
2023-02-09T19:48:06.517Z,77.10
2023-02-09T19:50:34.621Z,89.30
2023-02-09T19:53:02.826Z,99.30
2023-02-09T19:55:31.047Z,99.60
2023-02-09T19:57:59.281Z,99.90
2023-02-09T20:00:29.147Z,99.90
2023-02-09T20:02:57.366Z,99.90
2023-02-09T20:05:25.615Z,99.90
2023-02-09T20:07:54.483Z,99.90
2023-02-09T20:10:23.969Z,99.90
2023-02-09T20:12:52.204Z,99.90
2023-02-09T20:15:20.402Z,99.90
2023-02-09T20:17:49.734Z,99.90
2023-02-09T20:20:17.930Z,99.90
2023-02-09T20:22:46.187Z,99.90
2023-02-09T20:25:14.798Z,99.90
2023-02-09T20:27:43.016Z,99.90
2023-02-09T20:30:14.272Z,99.90
2023-02-09T20:32:42.252Z,96.30
2023-02-09T20:35:13.333Z,92.80
2023-02-09T20:37:41.351Z,79.60
2023-02-09T20:40:11.355Z,68.20
2023-02-09T20:42:57.041Z,68.40
2023-02-09T20:45:42.918Z,59.50
2023-02-09T20:48:11.129Z,61.70
2023-02-09T20:50:41.554Z,62.10
2023-02-09T20:53:09.566Z,58.80
2023-02-09T20:55:38.131Z,59.00
2023-02-09T20:58:06.208Z,55.80
2023-02-09T21:00:36.841Z,59.40
2023-02-09T21:03:06.364Z,60.20
2023-02-09T21:05:34.671Z,65.80
2023-02-09T21:08:04.372Z,68.00
2023-02-09T21:10:35.723Z,59.30
2023-02-09T21:13:03.827Z,47.50
2023-02-09T21:15:31.872Z,45.40
2023-02-09T21:17:59.987Z,45.00
2023-02-09T21:20:28.173Z,33.40
2023-02-09T21:22:56.658Z,38.40
2023-02-09T21:25:27.710Z,37.20
2023-02-09T21:27:59.264Z,35.80
2023-02-09T21:30:27.767Z,33.30
2023-02-09T21:32:57.133Z,33.20
2023-02-09T21:35:25.138Z,36.50
2023-02-09T21:37:53.305Z,34.00
2023-02-09T21:40:21.398Z,27.30
2023-02-09T21:42:51.806Z,24.60
2023-02-09T21:45:19.852Z,24.40
2023-02-09T21:47:47.821Z,29.30
2023-02-09T21:50:15.912Z,33.60
2023-02-09T21:52:43.915Z,40.10
2023-02-09T21:55:13.037Z,63.60
2023-02-09T21:57:41.117Z,47.90
2023-02-09T22:00:13.586Z,55.30
2023-02-09T22:02:41.874Z,70.50
2023-02-09T22:05:10.013Z,73.30
2023-02-09T22:07:38.037Z,82.50
2023-02-09T22:10:06.793Z,70.80
2023-02-09T22:12:36.373Z,73.60
2023-02-09T22:15:04.452Z,81.70
2023-02-09T22:17:33.861Z,86.60
2023-02-09T22:20:01.831Z,93.10
2023-02-09T22:22:29.887Z,95.70
2023-02-09T22:24:59.055Z,99.90
2023-02-09T22:27:27.514Z,99.90
2023-02-09T22:29:55.587Z,99.90
2023-02-09T22:32:24.425Z,99.90
2023-02-09T22:34:53.827Z,99.90
2023-02-09T22:37:21.839Z,99.90
2023-02-09T22:39:49.873Z,99.90
2023-02-09T22:42:17.890Z,99.90
2023-02-09T22:44:46.403Z,99.90
2023-02-09T22:47:14.401Z,99.90
2023-02-09T22:49:45.322Z,99.90
2023-02-09T22:52:14.677Z,99.90
2023-02-09T22:54:42.660Z,99.90
2023-02-09T22:57:10.629Z,99.90
2023-02-09T22:59:38.631Z,99.90
2023-02-09T23:02:07.268Z,99.90
2023-02-09T23:04:35.326Z,99.90
2023-02-09T23:07:04.971Z,99.90
2023-02-09T23:09:34.403Z,99.90
2023-02-09T23:12:02.489Z,99.90
2023-02-09T23:14:30.485Z,99.90
2023-02-09T23:16:59.026Z,99.90
2023-02-09T23:19:27.009Z,99.90
2023-02-09T23:21:55.029Z,99.90
2023-02-09T23:24:24.409Z,99.90
2023-02-09T23:26:54.342Z,99.90
2023-02-09T23:29:23.132Z,99.90
2023-02-09T23:31:51.375Z,99.90
2023-02-09T23:34:23.324Z,99.90
2023-02-09T23:36:51.547Z,99.90
2023-02-09T23:39:21.134Z,99.90
2023-02-09T23:41:49.313Z,99.90
2023-02-09T23:44:19.543Z,99.90
2023-02-09T23:46:47.705Z,99.90
2023-02-09T23:49:15.714Z,99.90
2023-02-09T23:51:46.564Z,99.90
2023-02-09T23:54:14.717Z,99.90
2023-02-09T23:56:44.018Z,99.90
2023-02-09T23:59:15.407Z,99.90
